Time;durP1;ratioP1;P1;durP2;ratioP2;P2;SDS_P1;SDS_P2;PMS_P1;PMS_P2;Temp;Humidity;BMP_temperature;BMP_pressure;BME280_temperature;BME280_humidity;BME280_pressure;Samples;Min_cycle;Max_cycle;Signal;HPM_P1;HPM_P2
2023/11/21 00:01:29;;;;;;;14.70;9.10;;;;;;;-147.86;100.00;49708.60;105887;1257;60965;-46
2023/11/21 00:04:01;;;;;;;17.70;9.60;;;;;;;-147.86;100.00;49715.66;105960;1258;60319;-46
2023/11/21 00:06:30;;;;;;;13.40;9.20;;;;;;;-147.86;100.00;49711.74;105899;1257;73815;-45
2023/11/21 00:08:58;;;;;;;25.00;9.70;;;;;;;-147.86;100.00;49710.57;105931;1252;64920;-43
2023/11/21 00:11:26;;;;;;;17.50;8.30;;;;;;;-147.86;100.00;49732.14;105871;1252;71434;-45
2023/11/21 00:13:53;;;;;;;15.80;9.40;;;;;;;-147.86;100.00;49740.38;105867;1257;60976;-43
2023/11/21 00:16:22;;;;;;;16.80;9.50;;;;;;;-147.86;100.00;49752.14;105904;1253;60658;-41
2023/11/21 00:18:51;;;;;;;13.40;9.00;;;;;;;-147.86;100.00;49771.36;105875;1257;73551;-43
2023/11/21 00:21:18;;;;;;;16.20;9.10;;;;;;;-147.86;100.00;49762.34;105910;1254;64191;-43
2023/11/21 00:23:45;;;;;;;16.00;9.60;;;;;;;-147.86;100.00;49788.62;105898;1254;72524;-45
2023/11/21 00:26:12;;;;;;;17.20;9.60;;;;;;;-147.86;100.00;49772.54;105896;1257;61184;-43
2023/11/21 00:28:40;;;;;;;16.50;10.20;;;;;;;-147.86;100.00;49805.88;105923;1254;60364;-45
2023/11/21 00:31:06;;;;;;;20.30;10.70;;;;;;;-147.86;100.00;49794.50;105910;1254;73784;-44
2023/11/21 00:33:33;;;;;;;16.30;10.00;;;;;;;-147.86;100.00;49814.50;105698;1254;65498;-43
2023/11/21 00:36:01;;;;;;;15.50;9.70;;;;;;;-147.86;100.00;49811.37;105924;1254;72625;-44
2023/11/21 00:38:28;;;;;;;17.50;10.00;;;;;;;-147.86;100.00;49822.35;105871;1257;60342;-42
2023/11/21 00:40:56;;;;;;;13.80;9.10;;;;;;;-147.86;100.00;49816.07;105884;1254;60458;-42
2023/11/21 00:43:23;;;;;;;16.60;10.20;;;;;;;-147.86;100.00;49817.64;105824;1257;73980;-44
2023/11/21 00:45:51;;;;;;;19.80;9.20;;;;;;;-147.86;100.00;49823.91;105901;1256;65438;-45
2023/11/21 00:48:18;;;;;;;20.00;10.20;;;;;;;-147.86;100.00;49857.65;105849;1254;72651;-46
2023/11/21 00:50:45;;;;;;;17.70;10.60;;;;;;;-147.86;100.00;49854.51;105902;1257;60532;-44
2023/11/21 00:53:12;;;;;;;18.80;9.50;;;;;;;-147.86;100.00;49850.20;105831;1253;60657;-42
2023/11/21 00:55:42;;;;;;;14.70;9.40;;;;;;;-147.86;100.00;49870.20;105576;1255;73685;-44
2023/11/21 00:58:10;;;;;;;16.70;10.50;;;;;;;-147.86;100.00;49865.10;105518;1257;65502;-44
2023/11/21 01:00:39;;;;;;;15.90;9.10;;;;;;;-147.86;100.00;49892.95;105617;1253;72595;-47
2023/11/21 01:03:07;;;;;;;16.50;9.80;;;;;;;-147.86;100.00;49888.64;105700;1257;61278;-43
2023/11/21 01:05:35;;;;;;;14.40;10.20;;;;;;;-147.86;100.00;49904.72;105923;1253;60528;-45
2023/11/21 01:08:02;;;;;;;15.40;8.80;;;;;;;-147.86;100.00;49916.88;105874;1254;73846;-46
2023/11/21 01:10:29;;;;;;;16.30;10.30;;;;;;;-147.86;100.00;49921.59;105873;1257;64420;-41
2023/11/21 01:12:57;;;;;;;16.10;9.70;;;;;;;-147.86;100.00;49907.07;105876;1254;72425;-42
2023/11/21 01:15:25;;;;;;;16.90;10.20;;;;;;;-147.86;100.00;49924.34;105925;1257;61106;-45
2023/11/21 01:17:53;;;;;;;15.10;9.60;;;;;;;-147.86;100.00;49936.49;105946;1252;60444;-41
2023/11/21 01:20:20;;;;;;;15.70;9.90;;;;;;;-147.86;100.00;49922.37;105851;1257;73724;-43
2023/11/21 01:22:49;;;;;;;18.40;9.60;;;;;;;-147.86;100.00;49925.12;105951;1256;65471;-42
2023/11/21 01:25:16;;;;;;;18.80;10.40;;;;;;;-147.86;100.00;49920.02;105817;1253;72721;-42
2023/11/21 01:27:43;;;;;;;21.90;9.40;;;;;;;-147.86;100.00;49936.49;105850;1257;61099;-44
2023/11/21 01:30:11;;;;;;;15.80;9.50;;;;;;;-147.86;100.00;49920.01;105853;1254;60643;-44
2023/11/21 01:32:39;;;;;;;14.40;9.40;;;;;;;-147.86;100.00;49916.49;105958;1257;73678;-46
2023/11/21 01:35:07;;;;;;;19.50;10.00;;;;;;;-147.86;100.00;49926.68;105924;1258;65562;-44
2023/11/21 01:37:34;;;;;;;19.60;9.80;;;;;;;-147.86;100.00;49921.59;105872;1253;72641;-45
2023/11/21 01:40:02;;;;;;;18.80;10.20;;;;;;;-147.86;100.00;49916.49;105727;1257;61236;-43
2023/11/21 01:42:29;;;;;;;18.00;10.10;;;;;;;-147.86;100.00;49947.08;105869;1253;60527;-42
2023/11/21 01:44:57;;;;;;;17.10;10.40;;;;;;;-147.86;100.00;49951.01;105936;1257;73745;-45
2023/11/21 01:47:23;;;;;;;14.50;9.80;;;;;;;-147.86;100.00;49957.28;105902;1257;65523;-44
2023/11/21 01:49:51;;;;;;;16.50;10.00;;;;;;;-147.86;100.00;49947.87;105887;1254;72514;-43
2023/11/21 01:52:18;;;;;;;16.20;10.80;;;;;;;-147.86;100.00;49959.24;105676;1257;61212;-46
2023/11/21 01:54:44;;;;;;;19.60;10.30;;;;;;;-147.86;100.00;49967.87;105879;1254;60344;-43
2023/11/21 01:57:11;;;;;;;17.80;10.90;;;;;;;-147.86;100.00;49998.07;105882;1256;73670;-42
2023/11/21 01:59:38;;;;;;;22.00;10.60;;;;;;;-147.86;100.00;49997.68;105690;1257;65232;-42
2023/11/21 02:02:06;;;;;;;19.80;10.10;;;;;;;-147.86;100.00;50024.35;105641;1253;72515;-44
2023/11/21 02:04:33;;;;;;;17.30;10.70;;;;;;;-147.86;100.00;50035.73;105899;1253;60520;-42
2023/11/21 02:07:06;;;;;;;18.60;11.00;;;;;;;-147.86;100.00;50026.71;105848;1252;60458;-43
2023/11/21 02:09:33;;;;;;;25.10;11.40;;;;;;;-147.86;100.00;50033.38;105758;1257;73827;-43
2023/11/21 02:12:02;;;;;;;18.10;11.10;;;;;;;-147.86;100.00;50036.52;105875;1257;65191;-46
2023/11/21 02:14:30;;;;;;;17.90;10.20;;;;;;;-147.86;100.00;50050.24;105900;1253;72632;-44
2023/11/21 02:16:57;;;;;;;19.00;10.20;;;;;;;-147.86;100.00;50063.58;105871;1253;60475;-44
2023/11/21 02:19:29;;;;;;;22.40;11.40;;;;;;;-147.86;100.00;50050.64;105900;1253;60462;-41
2023/11/21 02:22:03;;;;;;;20.80;12.40;;;;;;;-147.86;100.00;50107.91;105898;1254;73890;-44
2023/11/21 02:24:29;;;;;;;15.60;11.20;;;;;;;-147.86;100.00;50091.82;105855;1254;65519;-45
2023/11/21 02:26:57;;;;;;;17.30;11.00;;;;;;;-147.86;100.00;50106.34;105877;1257;72654;-45
2023/11/21 02:29:30;;;;;;;22.80;11.70;;;;;;;-147.86;100.00;50105.55;105684;1257;61131;-47
2023/11/21 02:31:56;;;;;;;19.10;11.40;;;;;;;-147.86;100.00;50123.99;105966;1254;60413;-44
2023/11/21 02:34:26;;;;;;;17.30;10.50;;;;;;;-147.86;100.00;50118.89;105915;1257;73795;-44
2023/11/21 02:36:53;;;;;;;17.10;11.20;;;;;;;-147.86;100.00;50113.40;105749;1257;65290;-46
2023/11/21 02:39:24;;;;;;;20.30;10.30;;;;;;;-147.86;100.00;50126.34;105897;1253;71507;-45
2023/11/21 02:41:51;;;;;;;22.30;12.30;;;;;;;-147.86;100.00;50127.52;105877;1257;62021;-43
2023/11/21 02:44:19;;;;;;;19.20;12.00;;;;;;;-147.86;100.00;50131.05;105914;1253;60340;-44
2023/11/21 02:46:47;;;;;;;20.70;11.00;;;;;;;-147.86;100.00;50162.82;105893;1256;73835;-41
2023/11/21 02:49:14;;;;;;;22.40;11.80;;;;;;;-147.86;100.00;50147.91;105938;1256;65947;-43
2023/11/21 02:51:43;;;;;;;21.60;11.70;;;;;;;-147.86;100.00;50147.91;105878;1257;72631;-45
2023/11/21 02:54:11;;;;;;;20.80;11.70;;;;;;;-147.86;100.00;50155.37;105692;1254;61071;-41
2023/11/21 02:56:39;;;;;;;23.10;11.50;;;;;;;-147.86;100.00;50161.65;105857;1255;60522;-42
2023/11/21 02:59:06;;;;;;;18.90;10.40;;;;;;;-147.86;100.00;50180.08;105920;1253;73805;-43
2023/11/21 03:01:33;;;;;;;19.60;11.90;;;;;;;-147.86;100.00;50184.79;105898;1257;65406;-42
2023/11/21 03:04:01;;;;;;;25.40;11.30;;;;;;;-147.86;100.00;50186.36;105699;1253;72616;-46
2023/11/21 03:06:29;;;;;;;21.50;10.30;;;;;;;-147.86;100.00;50204.40;105858;1253;60457;-43
2023/11/21 03:08:55;;;;;;;23.40;11.80;;;;;;;-147.86;100.00;50218.92;105821;1253;60405;-42
2023/11/21 03:11:22;;;;;;;17.30;10.90;;;;;;;-147.86;100.00;50208.72;105662;1254;73875;-42
2023/11/21 03:13:49;;;;;;;20.90;11.40;;;;;;;-147.86;100.00;50229.90;105857;1256;65455;-40
2023/11/21 03:16:16;;;;;;;17.80;11.60;;;;;;;-147.86;100.00;50218.92;105897;1253;72534;-43
2023/11/21 03:18:44;;;;;;;19.10;10.80;;;;;;;-147.86;100.00;50233.43;105869;1256;60438;-42
2023/11/21 03:21:13;;;;;;;21.20;11.50;;;;;;;-147.86;100.00;50222.45;105931;1252;60529;-44
2023/11/21 03:23:40;;;;;;;17.40;11.50;;;;;;;-147.86;100.00;50228.73;105826;1257;73889;-42
2023/11/21 03:26:11;;;;;;;19.50;11.60;;;;;;;-147.86;100.00;50243.24;105903;1256;65415;-44
2023/11/21 03:28:39;;;;;;;18.60;11.40;;;;;;;-147.86;100.00;50258.54;105699;1256;72584;-45
2023/11/21 03:31:06;;;;;;;22.30;11.00;;;;;;;-147.86;100.00;50262.85;105734;1257;60554;-43
2023/11/21 03:33:34;;;;;;;18.60;10.50;;;;;;;-147.86;100.00;50243.63;105687;1253;60526;-43
2023/11/21 03:36:02;;;;;;;22.00;11.90;;;;;;;-147.86;100.00;50266.38;105883;1253;73812;-42
2023/11/21 03:38:29;;;;;;;21.20;11.70;;;;;;;-147.86;100.00;50271.88;105712;1253;65356;-46
2023/11/21 03:40:56;;;;;;;18.00;11.40;;;;;;;-147.86;100.00;50291.88;105843;1253;72835;-45
2023/11/21 03:43:24;;;;;;;16.30;11.30;;;;;;;-147.86;100.00;50285.21;105694;1257;60464;-41
2023/11/21 03:45:51;;;;;;;20.20;12.00;;;;;;;-147.86;100.00;50280.90;105909;1253;60435;-45
2023/11/21 03:48:18;;;;;;;22.20;11.30;;;;;;;-147.86;100.00;50301.69;105907;1254;72871;-42
2023/11/21 03:50:44;;;;;;;23.70;12.20;;;;;;;-147.86;100.00;50301.69;105870;1257;65436;-44
2023/11/21 03:53:11;;;;;;;17.70;11.30;;;;;;;-147.86;100.00;50285.99;105882;1252;72514;-45
2023/11/21 03:55:38;;;;;;;18.50;11.50;;;;;;;-147.86;100.00;50312.67;105851;1257;60363;-44
2023/11/21 03:58:05;;;;;;;19.60;11.70;;;;;;;-147.86;100.00;50309.93;105888;1253;60396;-44
2023/11/21 04:00:32;;;;;;;22.70;13.00;;;;;;;-147.86;100.00;50307.57;105843;1252;73798;-45
2023/11/21 04:02:59;;;;;;;21.40;11.30;;;;;;;-147.86;100.00;50313.46;105879;1253;65288;-40
2023/11/21 04:05:26;;;;;;;18.50;11.80;;;;;;;-147.86;100.00;50327.97;105869;1253;72513;-43
2023/11/21 04:07:53;;;;;;;21.50;11.50;;;;;;;-147.86;100.00;50314.24;105883;1256;61001;-44
2023/11/21 04:10:20;;;;;;;18.80;11.10;;;;;;;-147.86;100.00;50342.49;105865;1253;60540;-42
2023/11/21 04:12:47;;;;;;;22.50;11.50;;;;;;;-147.86;100.00;50338.95;105897;1253;73737;-41
2023/11/21 04:15:14;;;;;;;18.90;10.70;;;;;;;-147.86;100.00;50336.21;105893;1257;65201;-43
2023/11/21 04:17:41;;;;;;;18.40;11.20;;;;;;;-147.86;100.00;50345.62;105895;1254;72721;-42
2023/11/21 04:20:09;;;;;;;27.70;11.80;;;;;;;-147.86;100.00;50347.59;105921;1252;61016;-45
2023/11/21 04:22:46;;;;;;;20.50;12.80;;;;;;;-147.86;100.00;50344.84;105966;1257;60340;-45
2023/11/21 04:25:14;;;;;;;26.10;13.00;;;;;;;-147.86;100.00;50351.51;105872;1253;73819;-42
2023/11/21 04:27:43;;;;;;;19.40;12.00;;;;;;;-147.86;100.00;50356.21;105901;1257;65478;-42
2023/11/21 04:30:13;;;;;;;21.90;12.20;;;;;;;-147.86;100.00;50366.41;105878;1257;72311;-45
2023/11/21 04:32:40;;;;;;;23.80;12.60;;;;;;;-147.86;100.00;50382.50;105889;1253;60540;-44
2023/11/21 04:35:11;;;;;;;20.00;11.40;;;;;;;-147.86;100.00;50351.90;105895;1253;60517;-43
2023/11/21 04:37:37;;;;;;;18.60;11.70;;;;;;;-147.86;100.00;50362.10;105864;1253;74059;-41
2023/11/21 04:40:08;;;;;;;23.20;11.50;;;;;;;-147.86;100.00;50372.69;105896;1257;65485;-41
2023/11/21 04:42:38;;;;;;;18.10;11.60;;;;;;;-147.86;100.00;50367.20;105920;1252;72735;-43
2023/11/21 04:45:09;;;;;;;19.80;11.30;;;;;;;-147.86;100.00;50385.24;105865;1253;61130;-45
2023/11/21 04:47:36;;;;;;;20.10;12.50;;;;;;;-147.86;100.00;50366.80;105611;1253;362748;-42
2023/11/21 04:50:04;;;;;;;17.90;11.90;;;;;;;-147.86;100.00;50368.77;105870;1254;73814;-45
2023/11/21 04:53:51;;;;;;;;;;;;;;;-147.86;100.00;50107.96;102518;1293;603420;-45
2023/11/21 04:56:18;;;;;;;26.40;12.80;;;;;;;-147.86;100.00;50395.05;105177;1269;59507;-43
2023/11/21 04:58:45;;;;;;;22.20;13.40;;;;;;;-147.86;100.00;50400.15;105103;1264;60255;-44
2023/11/21 05:01:13;;;;;;;27.30;16.00;;;;;;;-147.86;100.00;50404.46;105224;1264;70809;-44
2023/11/21 05:03:41;;;;;;;28.00;16.80;;;;;;;-147.86;100.00;50391.52;105157;1269;65513;-45
2023/11/21 05:06:11;;;;;;;20.20;12.80;;;;;;;-147.86;100.00;50382.50;105102;1270;207196;-46
2023/11/21 05:08:38;;;;;;;18.70;11.70;;;;;;;-147.86;100.00;50371.91;105222;1267;59437;-42
2023/11/21 05:11:07;;;;;;;23.50;13.20;;;;;;;-147.86;100.00;50399.37;105276;1264;60293;-44
2023/11/21 05:13:34;;;;;;;23.10;12.70;;;;;;;-147.86;100.00;50396.62;105237;1266;70843;-44
2023/11/21 05:16:05;;;;;;;23.50;12.50;;;;;;;-147.86;100.00;50387.60;105230;1267;65478;-44
2023/11/21 05:18:32;;;;;;;28.20;13.10;;;;;;;-147.86;100.00;50379.75;105242;1264;72687;-44
2023/11/21 05:20:59;;;;;;;24.10;13.40;;;;;;;-147.86;100.00;50384.07;105158;1267;59660;-45
2023/11/21 05:23:26;;;;;;;27.90;13.40;;;;;;;-147.86;100.00;50380.93;105252;1264;60205;-46
2023/11/21 05:25:53;;;;;;;28.10;14.50;;;;;;;-147.86;100.00;50373.08;105192;1263;71875;-44
2023/11/21 05:28:20;;;;;;;30.40;13.40;;;;;;;-147.86;100.00;50400.15;105255;1267;65381;-47
2023/11/21 05:30:47;;;;;;;23.50;14.20;;;;;;;-147.86;100.00;50377.79;104983;1264;72641;-45
2023/11/21 05:33:14;;;;;;;23.60;12.70;;;;;;;-147.86;100.00;50375.44;105170;1267;61257;-47
2023/11/21 05:35:41;;;;;;;31.70;14.40;;;;;;;-147.86;100.00;50369.55;105225;1264;60153;-42
2023/11/21 05:38:07;;;;;;;34.20;15.50;;;;;;;-147.86;100.00;50367.20;105218;1263;72995;-44
2023/11/21 05:40:34;;;;;;;29.20;15.20;;;;;;;-147.86;100.00;50349.15;105219;1267;65497;-46
2023/11/21 05:43:01;;;;;;;34.00;15.80;;;;;;;-147.86;100.00;50330.71;105229;1264;72591;-42
2023/11/21 05:45:29;;;;;;;31.80;15.10;;;;;;;-147.86;100.00;50329.54;105262;1264;61165;-46
2023/11/21 05:47:58;;;;;;;39.70;16.70;;;;;;;-147.86;100.00;50338.56;105212;1264;60383;-44
2023/11/21 05:50:25;;;;;;;34.90;16.00;;;;;;;-147.86;100.00;50333.46;105256;1267;72891;-44
2023/11/21 05:52:51;;;;;;;36.50;17.40;;;;;;;-147.86;100.00;50318.55;105214;1267;65567;-42
2023/11/21 05:55:20;;;;;;;38.40;17.50;;;;;;;-147.86;100.00;50321.30;105234;1267;72610;-46
2023/11/21 05:57:47;;;;;;;26.60;14.10;;;;;;;-147.86;100.00;50316.20;105211;1267;61156;-44
2023/11/21 06:00:25;;;;;;;27.60;14.50;;;;;;;-147.86;100.00;50336.21;105225;1264;60135;-44
2023/11/21 06:02:53;;;;;;;32.40;14.10;;;;;;;-147.86;100.00;50331.50;105231;1267;71975;-49
2023/11/21 06:05:25;;;;;;;26.00;13.50;;;;;;;-147.86;100.00;50341.70;105232;1267;64038;-43
2023/11/21 06:07:54;;;;;;;24.50;15.10;;;;;;;-147.86;100.00;50330.32;105189;1264;72731;-45
2023/11/21 06:10:21;;;;;;;25.20;13.80;;;;;;;-147.86;100.00;50313.85;105168;1267;60558;-44
2023/11/21 06:12:48;;;;;;;25.20;14.00;;;;;;;-147.86;100.00;50313.06;105202;1264;60396;-45
2023/11/21 06:15:16;;;;;;;23.50;13.60;;;;;;;-147.86;100.00;50304.43;105157;1267;71932;-44
2023/11/21 06:17:44;;;;;;;28.90;14.80;;;;;;;-147.86;100.00;50276.58;105144;1267;65381;-42
2023/11/21 06:20:15;;;;;;;24.30;14.00;;;;;;;-147.86;100.00;50252.65;105195;1264;72649;-44
2023/11/21 06:22:42;;;;;;;24.10;13.60;;;;;;;-147.86;100.00;50240.49;105214;1267;59730;-41
2023/11/21 06:25:10;;;;;;;28.00;15.30;;;;;;;-147.86;100.00;50193.03;105201;1263;60136;-41
2023/11/21 06:27:41;;;;;;;32.50;15.30;;;;;;;-147.86;100.00;50158.51;105195;1267;72494;-44
2023/11/21 06:30:09;;;;;;;26.60;12.80;;;;;;;-147.86;100.00;50121.63;105192;1267;65371;-44
2023/11/21 06:32:36;;;;;;;24.00;13.60;;;;;;;-147.86;100.00;50098.88;105210;1264;71226;-45
2023/11/21 06:35:05;;;;;;;21.40;12.00;;;;;;;-147.86;100.00;50064.76;105165;1267;59647;-45
2023/11/21 06:37:32;;;;;;;22.90;12.10;;;;;;;-147.86;100.00;50024.75;105209;1263;60208;-44
2023/11/21 06:40:00;;;;;;;23.40;13.30;;;;;;;-147.86;100.00;49973.75;105222;1267;72963;-41
2023/11/21 06:42:27;;;;;;;26.90;14.60;;;;;;;-147.86;100.00;49925.90;105213;1267;65537;-45
2023/11/21 06:44:56;;;;;;;24.10;14.10;;;;;;;-147.86;100.00;49861.57;105168;1264;72738;-44
2023/11/21 06:47:27;;;;;;;22.10;13.00;;;;;;;-147.86;100.00;49812.15;105142;1267;59565;-44
2023/11/21 06:49:54;;;;;;;28.40;15.90;;;;;;;-147.86;100.00;49753.71;105208;1264;60329;-41
2023/11/21 06:52:21;;;;;;;26.80;14.50;;;;;;;-147.86;100.00;49687.03;105608;1257;72981;-45
2023/11/21 06:54:51;;;;;;;22.00;12.80;;;;;;;-147.86;100.00;49621.53;105602;1257;65565;-43
2023/11/21 06:57:18;;;;;;;24.60;12.70;;;;;;;-147.86;100.00;49555.25;105667;1257;72523;-40
2023/11/21 06:59:45;;;;;;;23.50;12.00;;;;;;;-147.86;100.00;49492.49;105653;1260;61157;-42
2023/11/21 07:02:12;;;;;;;23.50;13.00;;;;;;;-147.86;100.00;49402.68;105646;1257;60272;-41
2023/11/21 07:04:39;;;;;;;23.50;12.20;;;;;;;-147.86;100.00;49330.91;105619;1257;72979;-42
2023/11/21 07:07:06;;;;;;;23.50;12.90;;;;;;;-147.86;100.00;49275.22;105706;1257;65449;-43
2023/11/21 07:09:33;;;;;;;19.70;12.40;;;;;;;-147.86;100.00;49190.90;105622;1260;71678;-46
2023/11/21 07:12:01;;;;;;;24.00;12.90;;;;;;;-147.86;100.00;49124.63;105605;1260;60846;-43
2023/11/21 07:14:28;;;;;;;17.90;11.00;;;;;;;-147.86;100.00;49074.43;105365;1257;60331;-44
2023/11/21 07:16:56;;;;;;;14.90;10.00;;;;;;;-147.86;100.00;48983.06;105343;1257;72913;-44
2023/11/21 07:19:24;;;;;;;21.80;9.70;;;;;;;-147.86;100.00;48923.45;105559;1260;65445;-45
2023/11/21 07:21:51;;;;;;;14.40;10.00;;;;;;;-147.86;100.00;48845.41;105658;1256;72577;-43
2023/11/21 07:24:19;;;;;;;17.10;10.60;;;;;;;-147.86;100.00;48780.71;105647;1260;59724;-42
2023/11/21 07:26:45;;;;;;;13.70;9.50;;;;;;;-147.86;100.00;48730.13;105673;1257;60019;-44
2023/11/21 07:29:13;;;;;;;21.20;10.50;;;;;;;-147.86;100.00;48636.80;105656;1260;73051;-43
2023/11/21 07:31:41;;;;;;;20.30;10.30;;;;;;;-147.86;100.00;48602.69;105679;1260;65442;-42
2023/11/21 07:34:08;;;;;;;16.80;10.10;;;;;;;-147.86;100.00;48542.70;105610;1257;72725;-45
2023/11/21 07:36:35;;;;;;;14.80;9.60;;;;;;;-147.86;100.00;48515.64;105618;1260;59675;-42
2023/11/21 07:39:03;;;;;;;18.70;9.80;;;;;;;-147.86;100.00;48484.67;105664;1258;60258;-46
2023/11/21 07:41:30;;;;;;;15.00;9.30;;;;;;;-147.86;100.00;48457.22;105648;1257;71829;-41
2023/11/21 07:43:59;;;;;;;17.20;10.30;;;;;;;-147.86;100.00;48463.10;105646;1260;65512;-40
2023/11/21 07:46:27;;;;;;;19.00;10.80;;;;;;;-147.86;100.00;48440.36;105714;1257;72402;-44
2023/11/21 07:48:55;;;;;;;17.40;10.50;;;;;;;-147.86;100.00;48434.09;105612;1257;59673;-41
2023/11/21 07:51:22;;;;;;;13.60;9.00;;;;;;;-147.86;100.00;48418.79;105591;1257;60401;-40
2023/11/21 07:53:49;;;;;;;14.60;9.20;;;;;;;-147.86;100.00;48396.05;105554;1257;72980;-43
2023/11/21 07:56:16;;;;;;;14.60;9.50;;;;;;;-147.86;100.00;48398.41;105629;1260;65450;-42
2023/11/21 07:58:44;;;;;;;13.20;9.00;;;;;;;-147.86;100.00;48396.84;105607;1257;72683;-44
2023/11/21 08:01:11;;;;;;;18.30;9.70;;;;;;;-147.86;100.00;48408.21;105622;1257;59736;-44
2023/11/21 08:03:38;;;;;;;19.50;9.80;;;;;;;-147.86;100.00;48400.37;105714;1257;60295;-42
2023/11/21 08:06:07;;;;;;;14.30;10.10;;;;;;;-147.86;100.00;48397.23;105687;1257;72791;-44
2023/11/21 08:08:34;;;;;;;19.80;11.60;;;;;;;-147.86;100.00;48390.95;105659;1258;64254;-42
2023/11/21 08:11:03;;;;;;;16.50;11.00;;;;;;;-147.86;100.00;48385.47;105606;1257;72561;-43
2023/11/21 08:13:30;;;;;;;20.30;10.70;;;;;;;-147.86;100.00;48383.90;105675;1260;61121;-44
2023/11/21 08:16:01;;;;;;;19.10;10.70;;;;;;;-147.86;100.00;48387.82;105591;1256;60314;-41
2023/11/21 08:18:29;;;;;;;18.90;10.70;;;;;;;-147.86;100.00;48377.23;105592;1260;73031;-42
2023/11/21 08:20:57;;;;;;;20.60;11.20;;;;;;;-147.86;100.00;48368.61;105630;1260;65494;-42
2023/11/21 08:23:27;;;;;;;19.50;12.40;;;;;;;-147.86;100.00;48367.04;105647;1257;72683;-44
2023/11/21 08:25:54;;;;;;;17.50;11.20;;;;;;;-147.86;100.00;48363.51;105621;1260;59592;-41
2023/11/21 08:28:25;;;;;;;23.90;12.20;;;;;;;-147.86;100.00;48370.96;105669;1260;60537;-42
2023/11/21 08:30:54;;;;;;;14.80;9.90;;;;;;;-147.86;100.00;48358.41;105622;1260;72988;-44
2023/11/21 08:33:20;;;;;;;18.60;10.70;;;;;;;-147.86;100.00;48370.17;105674;1260;65936;-43
2023/11/21 08:35:48;;;;;;;16.40;10.30;;;;;;;-147.86;100.00;48361.55;105634;1260;72452;-41
2023/11/21 08:38:15;;;;;;;15.30;10.60;;;;;;;-147.86;100.00;48374.09;105694;1260;59727;-43
2023/11/21 08:40:42;;;;;;;16.70;11.00;;;;;;;-147.86;100.00;48339.59;105632;1257;60339;-45
2023/11/21 08:43:09;;;;;;;24.50;11.80;;;;;;;-147.86;100.00;48359.98;105613;1257;72971;-42
2023/11/21 08:45:36;;;;;;;18.50;11.70;;;;;;;-147.86;100.00;48337.63;105626;1257;65266;-43
2023/11/21 08:48:03;;;;;;;22.20;12.70;;;;;;;-147.86;100.00;48344.30;105654;1260;72685;-41
2023/11/21 08:50:30;;;;;;;19.70;11.60;;;;;;;-147.86;100.00;48324.69;105641;1260;60270;-44
2023/11/21 08:52:57;;;;;;;17.10;11.40;;;;;;;-147.86;100.00;48341.16;105780;1256;60449;-43
2023/11/21 08:55:24;;;;;;;28.50;11.00;;;;;;;-147.86;100.00;48338.02;105625;1257;72943;-41
2023/11/21 08:57:51;;;;;;;18.60;10.60;;;;;;;-147.86;100.00;48353.71;105655;1260;65264;-43
2023/11/21 09:00:19;;;;;;;19.80;11.70;;;;;;;-147.86;100.00;48326.65;105633;1257;73028;-43
2023/11/21 09:02:46;;;;;;;18.80;11.70;;;;;;;-147.86;100.00;48335.67;105613;1260;60524;-42
2023/11/21 09:05:14;;;;;;;17.70;11.50;;;;;;;-147.86;100.00;48332.53;105698;1258;60444;-45
2023/11/21 09:07:41;;;;;;;21.80;11.70;;;;;;;-147.86;100.00;48332.14;105659;1256;74125;-43
2023/11/21 09:10:09;;;;;;;22.50;10.80;;;;;;;-147.86;100.00;48321.55;105679;1260;65502;-42
2023/11/21 09:12:39;;;;;;;16.30;10.20;;;;;;;-147.86;100.00;48323.52;105654;1260;71401;-44
2023/11/21 09:15:06;;;;;;;17.70;11.40;;;;;;;-147.86;100.00;48309.01;105661;1257;60450;-45
2023/11/21 09:17:34;;;;;;;19.00;11.90;;;;;;;-147.86;100.00;48308.62;105651;1257;60495;-44
2023/11/21 09:20:03;;;;;;;16.30;10.60;;;;;;;-147.86;100.00;48314.89;105700;1257;72312;-43
2023/11/21 09:22:31;;;;;;;19.60;11.50;;;;;;;-147.86;100.00;48316.46;105621;1260;66527;-42
2023/11/21 09:24:58;;;;;;;19.70;11.80;;;;;;;-147.86;100.00;48311.36;105658;1257;72521;-40
2023/11/21 09:27:28;;;;;;;21.00;12.20;;;;;;;-147.86;100.00;48316.85;105712;1260;60549;-41
2023/11/21 09:29:55;;;;;;;17.90;11.10;;;;;;;-147.86;100.00;48323.91;105651;1256;60530;-42
2023/11/21 09:32:22;;;;;;;20.60;11.90;;;;;;;-147.86;100.00;48325.48;105581;1257;73873;-44
2023/11/21 09:34:50;;;;;;;17.60;12.40;;;;;;;-147.86;100.00;48308.62;105628;1257;65488;-44
2023/11/21 09:37:17;;;;;;;20.10;11.90;;;;;;;-147.86;100.00;48315.29;105602;1257;73547;-45
2023/11/21 09:39:44;;;;;;;17.90;11.00;;;;;;;-147.86;100.00;48305.09;105601;1260;60489;-44
2023/11/21 09:42:17;;;;;;;18.20;11.20;;;;;;;-147.86;100.00;48319.60;105666;1257;61122;-42
2023/11/21 09:44:48;;;;;;;20.40;11.70;;;;;;;-147.86;100.00;48314.11;105664;1260;72296;-43
2023/11/21 09:47:16;;;;;;;20.80;11.90;;;;;;;-147.86;100.00;48312.15;105628;1259;64534;-40
2023/11/21 09:49:49;;;;;;;18.60;11.90;;;;;;;-147.86;100.00;48323.91;105648;1257;72517;-46
2023/11/21 09:52:23;;;;;;;18.40;10.60;;;;;;;-147.86;100.00;48297.64;105636;1257;60856;-42
2023/11/21 09:54:51;;;;;;;19.30;10.40;;;;;;;-147.86;100.00;48325.87;105655;1257;60527;-40
2023/11/21 09:57:19;;;;;;;16.10;10.10;;;;;;;-147.86;100.00;48310.19;105636;1258;73426;-42
2023/11/21 09:59:46;;;;;;;17.40;11.20;;;;;;;-147.86;100.00;48314.11;105649;1260;64512;-43
2023/11/21 10:02:13;;;;;;;19.20;12.00;;;;;;;-147.86;100.00;48306.26;105611;1257;73278;-44
2023/11/21 10:04:40;;;;;;;20.40;11.50;;;;;;;-147.86;100.00;48318.81;105672;1256;60488;-42
2023/11/21 10:07:09;;;;;;;19.20;11.30;;;;;;;-147.86;100.00;48311.75;105626;1257;60402;-42
2023/11/21 10:09:37;;;;;;;19.70;11.60;;;;;;;-147.86;100.00;48316.07;105543;1257;74422;-42
2023/11/21 10:12:06;;;;;;;16.90;10.90;;;;;;;-147.86;100.00;48318.81;105643;1258;64582;-42
2023/11/21 10:14:34;;;;;;;16.80;11.40;;;;;;;-147.86;100.00;48298.81;105660;1258;72430;-43
2023/11/21 10:17:02;;;;;;;19.10;11.40;;;;;;;-147.86;100.00;48299.99;105620;1257;60398;-43
2023/11/21 10:19:29;;;;;;;17.80;10.90;;;;;;;-147.86;99.32;48317.24;105401;1257;60540;-44
2023/11/21 10:21:59;;;;;;;18.80;11.30;;;;;;;-147.86;94.28;48302.34;105524;1257;73694;-42
2023/11/21 10:24:27;;;;;;;19.40;12.00;;;;;;;-147.86;91.80;48319.99;105662;1260;65653;-45
2023/11/21 10:26:57;;;;;;;17.40;11.40;;;;;;;-147.86;91.50;48319.59;105603;1257;72478;-42
2023/11/21 10:29:26;;;;;;;17.90;11.80;;;;;;;-147.86;84.40;48314.50;105609;1259;60367;-45
2023/11/21 10:31:57;;;;;;;17.70;12.00;;;;;;;-147.86;78.49;48312.54;105666;1257;60520;-42
2023/11/21 10:34:24;;;;;;;16.00;10.40;;;;;;;-147.86;72.29;48306.66;105673;1256;75168;-42
2023/11/21 10:36:51;;;;;;;14.40;10.60;;;;;;;-147.86;67.08;48313.32;105625;1260;65801;-42
2023/11/21 10:39:23;;;;;;;13.90;10.30;;;;;;;-147.86;77.80;48325.09;105649;1257;72730;-42
2023/11/21 10:41:51;;;;;;;18.70;11.30;;;;;;;-147.86;77.43;48312.93;105597;1260;60371;-43
2023/11/21 10:44:23;;;;;;;17.10;11.80;;;;;;;-147.86;73.95;48307.44;105647;1257;60460;-43
2023/11/21 10:46:52;;;;;;;22.20;11.70;;;;;;;-147.86;77.29;48315.29;105660;1257;73795;-42
2023/11/21 10:49:24;;;;;;;16.60;11.20;;;;;;;-147.86;79.69;48300.78;105634;1256;65145;-44
2023/11/21 10:51:53;;;;;;;17.20;11.00;;;;;;;-147.86;82.82;48325.48;105635;1257;71300;-43
2023/11/21 10:54:20;;;;;;;19.00;11.80;;;;;;;-147.86;73.76;48332.14;105606;1260;60453;-44